Mineral Wells, West Virginia
Current Conditions -  °F | °C
As of 6:53 PM on Saturday 25 Oct 2014 (Local Time) from KPKB Reporting Station
Clear Clear  
Wind Chill: 64°   Ceiling: Unl
Heat Index: 64°   Visibility: 10mi
Dew Point: 51°   Wind: 8mph
Humidity: 63%   Direction: 230°SW
Pressure: 29.88"   Gusts: NA
Location:  39.21°N, 81.54°W
Report Text: KPKB 252253Z 23007KT 10SM CLR 18/11 A2988 RMK AO2 SLP116 T01780106
Loading
Personal Weather Stations






























Interactive Weather Map
Tropical Storm Tracking
New forecast layout! Learn more

10-Day Weather Forecast

Advertisements
Track Severe Weather on mobile